TimePST,TemperatureF,Dew PointF,Humidity,Sea Level PressureIn,VisibilityMPH,Wind Direction,Wind SpeedMPH,Gust SpeedMPH,PrecipitationIn,Events,Conditions,WindDirDegrees,DateUTC
12:56 AM,41.0,39.0,93,30.17,10.0,East,3.5,-,N/A,,Clear,100,2013-01-05 08:56:00
1:56 AM,42.1,37.9,85,30.19,10.0,East,4.6,-,N/A,,Clear,100,2013-01-05 09:56:00
2:45 AM,44.6,39.2,81,30.19,10.0,SE,6.9,-,N/A,,Mostly Cloudy,130,2013-01-05 10:45:00
2:56 AM,46.0,41.0,83,30.19,10.0,ESE,6.9,-,N/A,,Overcast,120,2013-01-05 10:56:00
3:56 AM,46.0,41.0,83,30.17,10.0,East,8.1,-,N/A,,Scattered Clouds,100,2013-01-05 11:56:00
4:56 AM,45.0,39.9,82,30.16,10.0,East,3.5,-,N/A,,Clear,90,2013-01-05 12:56:00
6:56 AM,43.0,37.9,82,30.16,10.0,East,4.6,-,N/A,,Mostly Cloudy,90,2013-01-05 14:56:00
7:56 AM,43.0,39.0,86,30.17,10.0,Calm,Calm,-,N/A,,Mostly Cloudy,0,2013-01-05 15:56:00
8:56 AM,45.0,39.9,82,30.19,10.0,ESE,4.6,-,N/A,,Overcast,120,2013-01-05 16:56:00
9:56 AM,46.0,39.9,79,30.20,10.0,East,6.9,-,N/A,,Mostly Cloudy,80,2013-01-05 17:56:00
10:56 AM,50.0,43.0,77,30.20,10.0,SE,8.1,-,N/A,,Overcast,140,2013-01-05 18:56:00
11:56 AM,51.1,42.1,71,30.18,10.0,SE,8.1,-,N/A,,Overcast,140,2013-01-05 19:56:00
12:56 PM,52.0,41.0,66,30.17,10.0,SSE,9.2,-,N/A,,Overcast,160,2013-01-05 20:56:00
1:19 PM,51.8,41.0,67,30.16,10.0,SSE,8.1,-,N/A,,Overcast,150,2013-01-05 21:19:00
1:54 PM,51.8,42.8,71,30.16,10.0,SSE,10.4,-,0.00,,Overcast,160,2013-01-05 21:54:00
1:56 PM,51.1,42.1,71,30.17,10.0,SSE,11.5,-,0.00,,Overcast,160,2013-01-05 21:56:00
2:56 PM,48.0,43.0,83,30.18,10.0,SE,10.4,-,0.02,,Overcast,140,2013-01-05 22:56:00
3:56 PM,48.0,43.0,83,30.18,10.0,SE,4.6,-,0.01,Rain,Light Rain,140,2013-01-05 23:56:00
4:56 PM,48.0,44.1,86,30.18,9.0,Calm,Calm,-,0.02,Rain,Light Rain,0,2013-01-06 00:56:00
5:56 PM,46.0,43.0,89,30.18,10.0,Calm,Calm,-,0.00,,Overcast,0,2013-01-06 01:56:00
6:56 PM,45.0,43.0,93,30.18,4.0,Calm,Calm,-,N/A,,Overcast,0,2013-01-06 02:56:00
7:56 PM,42.1,41.0,96,30.19,8.0,Calm,Calm,-,N/A,,Clear,0,2013-01-06 03:56:00
8:56 PM,43.0,41.0,93,30.19,10.0,NNE,3.5,-,N/A,,Overcast,30,2013-01-06 04:56:00
9:56 PM,43.0,41.0,93,30.19,10.0,Calm,Calm,-,N/A,,Overcast,0,2013-01-06 05:56:00
10:56 PM,44.1,42.1,93,30.20,10.0,Calm,Calm,-,N/A,,Overcast,0,2013-01-06 06:56:00